sensor_id;sensor_type;location;lat;lon;timestamp;P1;durP1;ratioP1;P2;durP2;ratioP2
49139;SDS011;34959;49.310;8.646;2023-07-30T00:01:38;4.57;;;1.33;;
49139;SDS011;34959;49.310;8.646;2023-07-30T00:04:03;7.40;;;1.55;;
49139;SDS011;34959;49.310;8.646;2023-07-30T00:06:29;3.58;;;1.20;;
49139;SDS011;34959;49.310;8.646;2023-07-30T00:08:54;9.70;;;1.58;;
49139;SDS011;34959;49.310;8.646;2023-07-30T00:11:19;3.63;;;1.35;;
49139;SDS011;34959;49.310;8.646;2023-07-30T00:13:45;4.45;;;1.30;;
49139;SDS011;34959;49.310;8.646;2023-07-30T00:16:10;2.22;;;1.30;;
49139;SDS011;34959;49.310;8.646;2023-07-30T00:18:36;9.85;;;1.90;;
49139;SDS011;34959;49.310;8.646;2023-07-30T00:21:01;3.95;;;1.35;;
49139;SDS011;34959;49.310;8.646;2023-07-30T00:23:26;1.92;;;1.10;;
49139;SDS011;34959;49.310;8.646;2023-07-30T00:25:52;4.38;;;1.20;;
49139;SDS011;34959;49.310;8.646;2023-07-30T00:28:17;3.47;;;1.20;;
49139;SDS011;34959;49.310;8.646;2023-07-30T00:30:42;2.67;;;1.35;;
49139;SDS011;34959;49.310;8.646;2023-07-30T00:33:08;3.15;;;1.50;;
49139;SDS011;34959;49.310;8.646;2023-07-30T00:35:34;2.75;;;1.00;;
49139;SDS011;34959;49.310;8.646;2023-07-30T00:38:00;2.20;;;1.25;;
49139;SDS011;34959;49.310;8.646;2023-07-30T00:40:25;3.53;;;1.23;;
49139;SDS011;34959;49.310;8.646;2023-07-30T00:42:51;2.25;;;1.23;;
49139;SDS011;34959;49.310;8.646;2023-07-30T00:45:16;4.00;;;1.20;;
49139;SDS011;34959;49.310;8.646;2023-07-30T00:47:43;5.07;;;1.30;;
49139;SDS011;34959;49.310;8.646;2023-07-30T00:50:08;2.83;;;1.10;;
49139;SDS011;34959;49.310;8.646;2023-07-30T00:52:36;3.47;;;1.33;;
49139;SDS011;34959;49.310;8.646;2023-07-30T00:55:02;2.28;;;1.20;;
49139;SDS011;34959;49.310;8.646;2023-07-30T00:57:28;3.10;;;1.10;;
49139;SDS011;34959;49.310;8.646;2023-07-30T00:59:53;3.70;;;1.67;;
49139;SDS011;34959;49.310;8.646;2023-07-30T01:02:19;5.70;;;1.65;;
49139;SDS011;34959;49.310;8.646;2023-07-30T01:04:44;3.17;;;1.30;;
49139;SDS011;34959;49.310;8.646;2023-07-30T01:07:10;1.88;;;1.08;;
49139;SDS011;34959;49.310;8.646;2023-07-30T01:09:36;3.17;;;1.30;;
49139;SDS011;34959;49.310;8.646;2023-07-30T01:12:02;3.28;;;1.20;;
49139;SDS011;34959;49.310;8.646;2023-07-30T01:14:27;3.53;;;1.15;;
49139;SDS011;34959;49.310;8.646;2023-07-30T01:16:53;2.03;;;0.80;;
49139;SDS011;34959;49.310;8.646;2023-07-30T01:19:19;2.95;;;1.17;;
49139;SDS011;34959;49.310;8.646;2023-07-30T01:21:45;2.05;;;1.10;;
49139;SDS011;34959;49.310;8.646;2023-07-30T01:24:10;10.05;;;1.23;;
49139;SDS011;34959;49.310;8.646;2023-07-30T01:26:40;1.35;;;0.88;;
49139;SDS011;34959;49.310;8.646;2023-07-30T01:29:22;3.90;;;1.20;;
49139;SDS011;34959;49.310;8.646;2023-07-30T01:31:56;3.22;;;0.95;;
49139;SDS011;34959;49.310;8.646;2023-07-30T01:34:23;1.85;;;1.10;;
49139;SDS011;34959;49.310;8.646;2023-07-30T01:36:50;2.95;;;1.42;;
49139;SDS011;34959;49.310;8.646;2023-07-30T01:39:16;2.63;;;1.30;;
49139;SDS011;34959;49.310;8.646;2023-07-30T01:41:42;2.45;;;1.10;;
49139;SDS011;34959;49.310;8.646;2023-07-30T01:44:08;2.15;;;1.10;;
49139;SDS011;34959;49.310;8.646;2023-07-30T01:46:33;3.22;;;1.10;;
49139;SDS011;34959;49.310;8.646;2023-07-30T01:48:58;2.35;;;0.80;;
49139;SDS011;34959;49.310;8.646;2023-07-30T01:51:24;2.22;;;0.95;;
49139;SDS011;34959;49.310;8.646;2023-07-30T01:53:49;1.92;;;1.13;;
49139;SDS011;34959;49.310;8.646;2023-07-30T01:56:15;2.00;;;1.17;;
49139;SDS011;34959;49.310;8.646;2023-07-30T01:58:40;5.50;;;1.52;;
49139;SDS011;34959;49.310;8.646;2023-07-30T02:01:05;3.60;;;1.20;;
49139;SDS011;34959;49.310;8.646;2023-07-30T02:03:31;1.98;;;1.10;;
49139;SDS011;34959;49.310;8.646;2023-07-30T02:05:56;2.25;;;1.20;;
49139;SDS011;34959;49.310;8.646;2023-07-30T02:08:22;2.95;;;0.98;;
49139;SDS011;34959;49.310;8.646;2023-07-30T02:10:57;1.70;;;1.10;;
49139;SDS011;34959;49.310;8.646;2023-07-30T02:13:23;1.90;;;0.85;;
49139;SDS011;34959;49.310;8.646;2023-07-30T02:15:49;4.28;;;0.90;;
49139;SDS011;34959;49.310;8.646;2023-07-30T02:18:14;1.17;;;0.88;;
49139;SDS011;34959;49.310;8.646;2023-07-30T02:20:39;1.98;;;1.20;;
49139;SDS011;34959;49.310;8.646;2023-07-30T02:23:05;4.53;;;1.08;;
49139;SDS011;34959;49.310;8.646;2023-07-30T02:25:30;2.22;;;1.00;;
49139;SDS011;34959;49.310;8.646;2023-07-30T02:27:56;1.67;;;1.13;;
49139;SDS011;34959;49.310;8.646;2023-07-30T02:30:22;3.00;;;1.13;;
49139;SDS011;34959;49.310;8.646;2023-07-30T02:32:47;5.57;;;1.05;;
49139;SDS011;34959;49.310;8.646;2023-07-30T02:35:13;2.55;;;0.73;;
49139;SDS011;34959;49.310;8.646;2023-07-30T02:37:38;1.42;;;0.70;;
49139;SDS011;34959;49.310;8.646;2023-07-30T02:40:04;2.35;;;0.90;;
49139;SDS011;34959;49.310;8.646;2023-07-30T02:42:30;2.47;;;1.00;;
49139;SDS011;34959;49.310;8.646;2023-07-30T02:44:56;2.92;;;0.90;;
49139;SDS011;34959;49.310;8.646;2023-07-30T02:47:21;1.55;;;1.00;;
49139;SDS011;34959;49.310;8.646;2023-07-30T02:49:47;1.92;;;1.10;;
49139;SDS011;34959;49.310;8.646;2023-07-30T02:52:12;2.40;;;0.90;;
49139;SDS011;34959;49.310;8.646;2023-07-30T02:54:38;2.60;;;0.90;;
49139;SDS011;34959;49.310;8.646;2023-07-30T02:57:03;1.58;;;1.08;;
49139;SDS011;34959;49.310;8.646;2023-07-30T02:59:29;1.65;;;0.95;;
49139;SDS011;34959;49.310;8.646;2023-07-30T03:01:54;1.58;;;0.90;;
49139;SDS011;34959;49.310;8.646;2023-07-30T03:04:19;1.92;;;0.98;;
49139;SDS011;34959;49.310;8.646;2023-07-30T03:06:46;3.10;;;1.00;;
49139;SDS011;34959;49.310;8.646;2023-07-30T03:09:11;1.50;;;1.00;;
49139;SDS011;34959;49.310;8.646;2023-07-30T03:11:37;1.73;;;0.85;;
49139;SDS011;34959;49.310;8.646;2023-07-30T03:14:02;1.58;;;0.90;;
49139;SDS011;34959;49.310;8.646;2023-07-30T03:16:28;2.80;;;1.30;;
49139;SDS011;34959;49.310;8.646;2023-07-30T03:18:53;2.17;;;1.20;;
49139;SDS011;34959;49.310;8.646;2023-07-30T03:21:18;3.15;;;0.93;;
49139;SDS011;34959;49.310;8.646;2023-07-30T03:23:44;1.90;;;0.90;;
49139;SDS011;34959;49.310;8.646;2023-07-30T03:26:10;3.28;;;1.00;;
49139;SDS011;34959;49.310;8.646;2023-07-30T03:28:36;2.20;;;0.93;;
49139;SDS011;34959;49.310;8.646;2023-07-30T03:31:01;1.60;;;0.80;;
49139;SDS011;34959;49.310;8.646;2023-07-30T03:33:27;3.47;;;0.88;;
49139;SDS011;34959;49.310;8.646;2023-07-30T03:35:52;1.75;;;1.00;;
49139;SDS011;34959;49.310;8.646;2023-07-30T03:38:17;1.60;;;0.93;;
49139;SDS011;34959;49.310;8.646;2023-07-30T03:40:43;2.05;;;0.82;;
49139;SDS011;34959;49.310;8.646;2023-07-30T03:43:08;1.73;;;0.90;;
49139;SDS011;34959;49.310;8.646;2023-07-30T03:45:34;2.67;;;0.98;;
49139;SDS011;34959;49.310;8.646;2023-07-30T03:47:59;2.03;;;1.08;;
49139;SDS011;34959;49.310;8.646;2023-07-30T03:50:24;1.65;;;0.98;;
49139;SDS011;34959;49.310;8.646;2023-07-30T03:52:50;1.67;;;0.82;;
49139;SDS011;34959;49.310;8.646;2023-07-30T03:55:15;3.22;;;1.02;;
49139;SDS011;34959;49.310;8.646;2023-07-30T03:57:41;1.38;;;0.82;;
49139;SDS011;34959;49.310;8.646;2023-07-30T04:00:06;1.52;;;0.85;;
49139;SDS011;34959;49.310;8.646;2023-07-30T04:02:32;1.60;;;0.90;;
49139;SDS011;34959;49.310;8.646;2023-07-30T04:04:58;2.50;;;0.98;;
49139;SDS011;34959;49.310;8.646;2023-07-30T04:07:23;1.95;;;0.90;;
49139;SDS011;34959;49.310;8.646;2023-07-30T04:09:48;1.42;;;0.90;;
49139;SDS011;34959;49.310;8.646;2023-07-30T04:12:14;2.20;;;0.90;;
49139;SDS011;34959;49.310;8.646;2023-07-30T04:14:39;4.20;;;1.10;;
49139;SDS011;34959;49.310;8.646;2023-07-30T04:17:05;1.17;;;0.80;;
49139;SDS011;34959;49.310;8.646;2023-07-30T04:19:30;2.00;;;0.80;;
49139;SDS011;34959;49.310;8.646;2023-07-30T04:21:55;1.95;;;1.00;;
49139;SDS011;34959;49.310;8.646;2023-07-30T04:24:21;1.83;;;0.90;;
49139;SDS011;34959;49.310;8.646;2023-07-30T04:26:46;1.10;;;0.77;;
49139;SDS011;34959;49.310;8.646;2023-07-30T04:29:12;2.92;;;1.08;;
49139;SDS011;34959;49.310;8.646;2023-07-30T04:31:39;1.88;;;0.82;;
49139;SDS011;34959;49.310;8.646;2023-07-30T04:34:04;1.52;;;0.80;;
49139;SDS011;34959;49.310;8.646;2023-07-30T04:36:30;2.15;;;1.00;;
49139;SDS011;34959;49.310;8.646;2023-07-30T04:38:55;1.40;;;0.80;;
49139;SDS011;34959;49.310;8.646;2023-07-30T04:41:20;1.20;;;0.80;;
49139;SDS011;34959;49.310;8.646;2023-07-30T04:43:46;2.03;;;1.00;;
49139;SDS011;34959;49.310;8.646;2023-07-30T04:46:12;1.63;;;0.90;;
49139;SDS011;34959;49.310;8.646;2023-07-30T04:48:37;1.88;;;0.80;;
49139;SDS011;34959;49.310;8.646;2023-07-30T04:51:03;1.80;;;0.93;;
49139;SDS011;34959;49.310;8.646;2023-07-30T04:53:28;1.50;;;0.90;;
49139;SDS011;34959;49.310;8.646;2023-07-30T04:55:57;1.40;;;0.75;;
49139;SDS011;34959;49.310;8.646;2023-07-30T04:58:22;2.78;;;0.90;;
49139;SDS011;34959;49.310;8.646;2023-07-30T05:00:48;4.07;;;1.00;;
49139;SDS011;34959;49.310;8.646;2023-07-30T05:03:14;1.45;;;0.77;;
49139;SDS011;34959;49.310;8.646;2023-07-30T05:05:39;2.83;;;0.77;;
49139;SDS011;34959;49.310;8.646;2023-07-30T05:08:05;1.95;;;0.88;;
49139;SDS011;34959;49.310;8.646;2023-07-30T05:10:31;4.75;;;0.82;;
49139;SDS011;34959;49.310;8.646;2023-07-30T05:12:56;2.28;;;1.10;;
49139;SDS011;34959;49.310;8.646;2023-07-30T05:15:21;4.60;;;1.35;;
49139;SDS011;34959;49.310;8.646;2023-07-30T05:17:47;1.08;;;0.70;;
49139;SDS011;34959;49.310;8.646;2023-07-30T05:20:12;4.50;;;1.10;;
49139;SDS011;34959;49.310;8.646;2023-07-30T05:22:37;1.55;;;0.93;;
49139;SDS011;34959;49.310;8.646;2023-07-30T05:25:03;5.47;;;1.20;;
49139;SDS011;34959;49.310;8.646;2023-07-30T05:27:29;1.38;;;0.90;;
49139;SDS011;34959;49.310;8.646;2023-07-30T05:29:56;2.08;;;0.80;;
49139;SDS011;34959;49.310;8.646;2023-07-30T05:32:22;2.25;;;0.70;;
49139;SDS011;34959;49.310;8.646;2023-07-30T05:34:47;1.90;;;0.80;;
49139;SDS011;34959;49.310;8.646;2023-07-30T05:37:13;1.95;;;0.95;;
49139;SDS011;34959;49.310;8.646;2023-07-30T05:39:38;9.05;;;0.93;;
49139;SDS011;34959;49.310;8.646;2023-07-30T05:42:03;1.35;;;0.63;;
49139;SDS011;34959;49.310;8.646;2023-07-30T05:44:29;1.70;;;0.80;;
49139;SDS011;34959;49.310;8.646;2023-07-30T05:46:54;2.88;;;1.00;;
49139;SDS011;34959;49.310;8.646;2023-07-30T05:49:20;1.10;;;0.80;;
49139;SDS011;34959;49.310;8.646;2023-07-30T05:51:45;4.60;;;1.10;;
49139;SDS011;34959;49.310;8.646;2023-07-30T05:54:11;3.25;;;0.70;;
49139;SDS011;34959;49.310;8.646;2023-07-30T05:56:37;1.40;;;0.70;;
49139;SDS011;34959;49.310;8.646;2023-07-30T05:59:03;4.90;;;1.40;;
49139;SDS011;34959;49.310;8.646;2023-07-30T06:01:28;10.40;;;1.05;;
49139;SDS011;34959;49.310;8.646;2023-07-30T06:03:53;4.13;;;1.23;;
49139;SDS011;34959;49.310;8.646;2023-07-30T06:06:19;3.88;;;0.77;;
49139;SDS011;34959;49.310;8.646;2023-07-30T06:08:51;4.50;;;0.98;;
49139;SDS011;34959;49.310;8.646;2023-07-30T06:11:17;1.90;;;0.90;;
49139;SDS011;34959;49.310;8.646;2023-07-30T06:13:43;1.55;;;0.85;;
49139;SDS011;34959;49.310;8.646;2023-07-30T06:16:09;1.48;;;0.77;;
49139;SDS011;34959;49.310;8.646;2023-07-30T06:18:34;3.00;;;1.20;;
49139;SDS011;34959;49.310;8.646;2023-07-30T06:21:00;1.90;;;0.80;;
49139;SDS011;34959;49.310;8.646;2023-07-30T06:23:25;2.20;;;0.77;;
49139;SDS011;34959;49.310;8.646;2023-07-30T06:25:51;2.28;;;0.90;;
49139;SDS011;34959;49.310;8.646;2023-07-30T06:28:16;2.55;;;0.88;;
49139;SDS011;34959;49.310;8.646;2023-07-30T06:30:41;1.73;;;0.80;;
49139;SDS011;34959;49.310;8.646;2023-07-30T06:33:07;1.55;;;0.90;;
49139;SDS011;34959;49.310;8.646;2023-07-30T06:35:32;1.02;;;0.70;;
49139;SDS011;34959;49.310;8.646;2023-07-30T06:37:57;1.63;;;1.10;;
49139;SDS011;34959;49.310;8.646;2023-07-30T06:40:23;2.53;;;0.70;;
49139;SDS011;34959;49.310;8.646;2023-07-30T06:42:48;4.78;;;0.82;;
49139;SDS011;34959;49.310;8.646;2023-07-30T06:45:14;1.70;;;0.77;;
49139;SDS011;34959;49.310;8.646;2023-07-30T06:47:39;2.80;;;0.90;;
49139;SDS011;34959;49.310;8.646;2023-07-30T06:50:05;1.50;;;0.90;;
49139;SDS011;34959;49.310;8.646;2023-07-30T06:52:33;6.00;;;1.17;;
49139;SDS011;34959;49.310;8.646;2023-07-30T06:54:59;3.85;;;1.33;;
49139;SDS011;34959;49.310;8.646;2023-07-30T06:57:24;2.63;;;0.82;;
49139;SDS011;34959;49.310;8.646;2023-07-30T06:59:49;3.03;;;0.82;;
49139;SDS011;34959;49.310;8.646;2023-07-30T07:02:15;1.70;;;1.20;;
49139;SDS011;34959;49.310;8.646;2023-07-30T07:04:40;1.60;;;0.90;;
49139;SDS011;34959;49.310;8.646;2023-07-30T07:07:06;3.13;;;1.50;;
49139;SDS011;34959;49.310;8.646;2023-07-30T07:09:31;2.78;;;1.17;;
49139;SDS011;34959;49.310;8.646;2023-07-30T07:11:57;1.75;;;1.23;;
49139;SDS011;34959;49.310;8.646;2023-07-30T07:14:23;3.13;;;1.10;;
49139;SDS011;34959;49.310;8.646;2023-07-30T07:16:48;1.63;;;1.10;;
49139;SDS011;34959;49.310;8.646;2023-07-30T07:19:14;6.80;;;1.45;;
49139;SDS011;34959;49.310;8.646;2023-07-30T07:21:39;2.10;;;1.52;;
49139;SDS011;34959;49.310;8.646;2023-07-30T07:24:05;3.50;;;1.58;;
49139;SDS011;34959;49.310;8.646;2023-07-30T07:26:31;3.00;;;1.50;;
49139;SDS011;34959;49.310;8.646;2023-07-30T07:28:56;2.83;;;1.60;;
49139;SDS011;34959;49.310;8.646;2023-07-30T07:31:21;2.92;;;1.58;;
49139;SDS011;34959;49.310;8.646;2023-07-30T07:33:47;2.85;;;2.00;;
49139;SDS011;34959;49.310;8.646;2023-07-30T07:36:12;2.40;;;1.80;;
49139;SDS011;34959;49.310;8.646;2023-07-30T07:38:39;2.20;;;1.50;;
49139;SDS011;34959;49.310;8.646;2023-07-30T07:41:04;2.55;;;1.45;;
49139;SDS011;34959;49.310;8.646;2023-07-30T07:43:30;2.65;;;1.45;;
49139;SDS011;34959;49.310;8.646;2023-07-30T07:45:55;2.72;;;1.65;;
49139;SDS011;34959;49.310;8.646;2023-07-30T07:48:21;3.42;;;1.70;;
49139;SDS011;34959;49.310;8.646;2023-07-30T07:50:46;2.17;;;1.55;;
49139;SDS011;34959;49.310;8.646;2023-07-30T07:53:11;2.47;;;1.13;;
49139;SDS011;34959;49.310;8.646;2023-07-30T07:55:37;2.33;;;1.25;;
49139;SDS011;34959;49.310;8.646;2023-07-30T07:58:02;2.08;;;1.33;;
49139;SDS011;34959;49.310;8.646;2023-07-30T08:00:28;2.95;;;1.23;;
49139;SDS011;34959;49.310;8.646;2023-07-30T08:02:53;1.95;;;1.13;;
49139;SDS011;34959;49.310;8.646;2023-07-30T08:05:18;3.60;;;1.30;;
49139;SDS011;34959;49.310;8.646;2023-07-30T08:07:47;2.45;;;1.30;;
49139;SDS011;34959;49.310;8.646;2023-07-30T08:10:13;3.20;;;1.27;;
49139;SDS011;34959;49.310;8.646;2023-07-30T08:12:38;2.38;;;1.33;;
49139;SDS011;34959;49.310;8.646;2023-07-30T08:15:04;1.77;;;1.20;;
49139;SDS011;34959;49.310;8.646;2023-07-30T08:17:30;1.40;;;1.30;;
49139;SDS011;34959;49.310;8.646;2023-07-30T08:19:55;2.28;;;1.30;;
49139;SDS011;34959;49.310;8.646;2023-07-30T08:22:20;2.97;;;1.50;;
49139;SDS011;34959;49.310;8.646;2023-07-30T08:24:46;2.03;;;1.52;;
49139;SDS011;34959;49.310;8.646;2023-07-30T08:27:11;1.90;;;1.25;;
49139;SDS011;34959;49.310;8.646;2023-07-30T08:29:37;2.40;;;1.27;;
49139;SDS011;34959;49.310;8.646;2023-07-30T08:32:02;1.92;;;1.42;;
49139;SDS011;34959;49.310;8.646;2023-07-30T08:34:28;3.45;;;1.27;;
49139;SDS011;34959;49.310;8.646;2023-07-30T08:36:53;1.90;;;1.10;;
49139;SDS011;34959;49.310;8.646;2023-07-30T08:39:18;1.85;;;1.30;;
49139;SDS011;34959;49.310;8.646;2023-07-30T08:41:45;3.63;;;1.40;;
49139;SDS011;34959;49.310;8.646;2023-07-30T08:44:11;2.22;;;1.10;;
49139;SDS011;34959;49.310;8.646;2023-07-30T08:46:37;1.45;;;1.10;;
49139;SDS011;34959;49.310;8.646;2023-07-30T08:49:02;1.83;;;1.17;;
49139;SDS011;34959;49.310;8.646;2023-07-30T08:51:28;1.20;;;1.10;;
49139;SDS011;34959;49.310;8.646;2023-07-30T08:53:54;3.05;;;1.00;;
49139;SDS011;34959;49.310;8.646;2023-07-30T08:56:22;2.70;;;1.20;;
49139;SDS011;34959;49.310;8.646;2023-07-30T08:58:47;1.48;;;1.05;;
49139;SDS011;34959;49.310;8.646;2023-07-30T09:01:16;1.70;;;1.15;;
49139;SDS011;34959;49.310;8.646;2023-07-30T09:03:42;1.25;;;0.85;;
49139;SDS011;34959;49.310;8.646;2023-07-30T09:06:08;1.67;;;1.02;;
49139;SDS011;34959;49.310;8.646;2023-07-30T09:08:33;1.58;;;1.10;;
49139;SDS011;34959;49.310;8.646;2023-07-30T09:11:11;1.42;;;1.15;;
49139;SDS011;34959;49.310;8.646;2023-07-30T09:13:37;1.60;;;1.20;;
49139;SDS011;34959;49.310;8.646;2023-07-30T09:16:10;2.45;;;1.23;;
49139;SDS011;34959;49.310;8.646;2023-07-30T09:18:43;3.17;;;1.30;;
49139;SDS011;34959;49.310;8.646;2023-07-30T09:21:13;1.38;;;1.20;;
49139;SDS011;34959;49.310;8.646;2023-07-30T09:23:42;1.45;;;0.90;;
49139;SDS011;34959;49.310;8.646;2023-07-30T09:26:07;1.77;;;1.00;;
49139;SDS011;34959;49.310;8.646;2023-07-30T09:28:33;1.33;;;1.08;;
49139;SDS011;34959;49.310;8.646;2023-07-30T09:30:59;1.30;;;1.00;;
49139;SDS011;34959;49.310;8.646;2023-07-30T09:33:25;2.15;;;1.10;;
49139;SDS011;34959;49.310;8.646;2023-07-30T09:35:52;1.67;;;1.20;;
49139;SDS011;34959;49.310;8.646;2023-07-30T09:38:18;1.48;;;1.00;;
49139;SDS011;34959;49.310;8.646;2023-07-30T09:40:45;2.40;;;1.05;;
49139;SDS011;34959;49.310;8.646;2023-07-30T09:43:14;1.52;;;1.20;;
49139;SDS011;34959;49.310;8.646;2023-07-30T09:45:40;1.35;;;0.90;;
49139;SDS011;34959;49.310;8.646;2023-07-30T09:48:05;1.30;;;1.02;;
49139;SDS011;34959;49.310;8.646;2023-07-30T09:50:31;1.27;;;1.00;;
49139;SDS011;34959;49.310;8.646;2023-07-30T09:52:58;1.75;;;1.02;;
49139;SDS011;34959;49.310;8.646;2023-07-30T09:55:26;2.13;;;1.23;;
49139;SDS011;34959;49.310;8.646;2023-07-30T09:57:52;0.88;;;0.77;;
49139;SDS011;34959;49.310;8.646;2023-07-30T10:00:17;1.42;;;0.90;;
49139;SDS011;34959;49.310;8.646;2023-07-30T10:02:45;1.25;;;0.90;;
49139;SDS011;34959;49.310;8.646;2023-07-30T10:05:11;1.85;;;1.10;;
49139;SDS011;34959;49.310;8.646;2023-07-30T10:10:25;2.63;;;1.02;;
49139;SDS011;34959;49.310;8.646;2023-07-30T10:12:52;1.50;;;1.10;;
49139;SDS011;34959;49.310;8.646;2023-07-30T10:15:19;1.00;;;0.90;;
49139;SDS011;34959;49.310;8.646;2023-07-30T10:17:45;3.17;;;1.05;;
49139;SDS011;34959;49.310;8.646;2023-07-30T10:20:25;2.15;;;0.90;;
49139;SDS011;34959;49.310;8.646;2023-07-30T10:22:53;1.20;;;0.82;;
49139;SDS011;34959;49.310;8.646;2023-07-30T10:25:30;1.23;;;1.00;;
49139;SDS011;34959;49.310;8.646;2023-07-30T10:28:08;1.27;;;1.00;;
49139;SDS011;34959;49.310;8.646;2023-07-30T10:30:33;2.38;;;0.98;;
49139;SDS011;34959;49.310;8.646;2023-07-30T10:33:01;5.43;;;1.17;;
49139;SDS011;34959;49.310;8.646;2023-07-30T10:41:07;4.88;;;1.15;;
49139;SDS011;34959;49.310;8.646;2023-07-30T10:43:38;1.35;;;1.20;;
49139;SDS011;34959;49.310;8.646;2023-07-30T10:46:15;1.35;;;1.00;;
49139;SDS011;34959;49.310;8.646;2023-07-30T10:48:44;1.73;;;1.00;;
49139;SDS011;34959;49.310;8.646;2023-07-30T10:51:15;6.32;;;1.40;;
49139;SDS011;34959;49.310;8.646;2023-07-30T10:53:42;1.83;;;1.00;;
49139;SDS011;34959;49.310;8.646;2023-07-30T10:56:16;1.65;;;1.02;;
49139;SDS011;34959;49.310;8.646;2023-07-30T10:58:43;1.73;;;0.93;;
49139;SDS011;34959;49.310;8.646;2023-07-30T11:01:09;1.15;;;0.93;;
49139;SDS011;34959;49.310;8.646;2023-07-30T11:03:34;2.38;;;0.98;;
49139;SDS011;34959;49.310;8.646;2023-07-30T11:06:01;1.58;;;1.10;;
49139;SDS011;34959;49.310;8.646;2023-07-30T11:10:59;4.15;;;1.10;;
49139;SDS011;34959;49.310;8.646;2023-07-30T11:13:25;22.65;;;3.85;;
49139;SDS011;34959;49.310;8.646;2023-07-30T11:15:51;13.98;;;2.78;;
49139;SDS011;34959;49.310;8.646;2023-07-30T11:18:16;9.60;;;1.92;;
49139;SDS011;34959;49.310;8.646;2023-07-30T11:20:42;7.28;;;1.88;;
49139;SDS011;34959;49.310;8.646;2023-07-30T11:23:20;6.32;;;1.83;;
49139;SDS011;34959;49.310;8.646;2023-07-30T11:25:47;7.68;;;1.67;;
49139;SDS011;34959;49.310;8.646;2023-07-30T11:28:14;8.27;;;1.77;;
49139;SDS011;34959;49.310;8.646;2023-07-30T11:30:51;8.45;;;2.22;;
49139;SDS011;34959;49.310;8.646;2023-07-30T11:33:17;8.50;;;1.73;;
49139;SDS011;34959;49.310;8.646;2023-07-30T11:35:42;9.10;;;1.60;;
49139;SDS011;34959;49.310;8.646;2023-07-30T11:38:08;5.85;;;1.80;;
49139;SDS011;34959;49.310;8.646;2023-07-30T11:40:33;7.30;;;1.80;;
49139;SDS011;34959;49.310;8.646;2023-07-30T11:42:59;3.85;;;1.52;;
49139;SDS011;34959;49.310;8.646;2023-07-30T11:45:24;5.35;;;1.60;;
49139;SDS011;34959;49.310;8.646;2023-07-30T11:47:51;5.40;;;1.50;;
49139;SDS011;34959;49.310;8.646;2023-07-30T11:50:17;6.57;;;1.63;;
49139;SDS011;34959;49.310;8.646;2023-07-30T11:52:55;9.40;;;1.35;;
49139;SDS011;34959;49.310;8.646;2023-07-30T11:55:21;6.18;;;1.35;;
49139;SDS011;34959;49.310;8.646;2023-07-30T11:57:48;3.55;;;1.20;;
49139;SDS011;34959;49.310;8.646;2023-07-30T12:00:13;5.55;;;1.55;;
49139;SDS011;34959;49.310;8.646;2023-07-30T12:02:39;4.60;;;1.40;;
49139;SDS011;34959;49.310;8.646;2023-07-30T12:05:04;3.80;;;1.17;;
49139;SDS011;34959;49.310;8.646;2023-07-30T12:07:32;6.70;;;1.40;;
49139;SDS011;34959;49.310;8.646;2023-07-30T12:10:08;3.63;;;1.30;;
49139;SDS011;34959;49.310;8.646;2023-07-30T12:12:34;4.13;;;1.20;;
49139;SDS011;34959;49.310;8.646;2023-07-30T12:14:59;4.03;;;1.42;;
49139;SDS011;34959;49.310;8.646;2023-07-30T12:17:24;3.40;;;1.35;;
49139;SDS011;34959;49.310;8.646;2023-07-30T12:19:50;5.10;;;1.30;;
49139;SDS011;34959;49.310;8.646;2023-07-30T12:22:15;3.03;;;1.27;;
49139;SDS011;34959;49.310;8.646;2023-07-30T12:24:41;5.35;;;1.20;;
49139;SDS011;34959;49.310;8.646;2023-07-30T12:27:06;2.00;;;1.10;;
49139;SDS011;34959;49.310;8.646;2023-07-30T12:29:32;4.38;;;1.17;;
49139;SDS011;34959;49.310;8.646;2023-07-30T12:31:57;2.40;;;1.05;;
49139;SDS011;34959;49.310;8.646;2023-07-30T12:34:23;2.80;;;1.17;;
49139;SDS011;34959;49.310;8.646;2023-07-30T12:36:49;3.97;;;1.20;;
49139;SDS011;34959;49.310;8.646;2023-07-30T12:39:15;3.47;;;1.15;;
49139;SDS011;34959;49.310;8.646;2023-07-30T12:41:40;2.63;;;1.20;;
49139;SDS011;34959;49.310;8.646;2023-07-30T12:44:06;4.25;;;1.25;;
49139;SDS011;34959;49.310;8.646;2023-07-30T12:46:31;3.15;;;1.20;;
49139;SDS011;34959;49.310;8.646;2023-07-30T12:48:58;2.17;;;1.20;;
49139;SDS011;34959;49.310;8.646;2023-07-30T12:51:28;3.58;;;1.20;;
49139;SDS011;34959;49.310;8.646;2023-07-30T12:53:53;2.92;;;1.25;;
49139;SDS011;34959;49.310;8.646;2023-07-30T12:56:18;3.55;;;1.13;;
49139;SDS011;34959;49.310;8.646;2023-07-30T12:58:44;3.03;;;1.10;;
49139;SDS011;34959;49.310;8.646;2023-07-30T13:01:09;1.83;;;1.10;;
49139;SDS011;34959;49.310;8.646;2023-07-30T13:03:35;3.70;;;1.20;;
49139;SDS011;34959;49.310;8.646;2023-07-30T13:06:01;2.65;;;1.00;;
49139;SDS011;34959;49.310;8.646;2023-07-30T13:08:27;3.50;;;1.00;;
49139;SDS011;34959;49.310;8.646;2023-07-30T13:10:55;1.65;;;1.00;;
49139;SDS011;34959;49.310;8.646;2023-07-30T13:13:23;4.22;;;1.20;;
49139;SDS011;34959;49.310;8.646;2023-07-30T13:15:48;3.40;;;1.10;;
49139;SDS011;34959;49.310;8.646;2023-07-30T13:18:14;1.52;;;1.17;;
49139;SDS011;34959;49.310;8.646;2023-07-30T13:20:39;2.03;;;1.10;;
49139;SDS011;34959;49.310;8.646;2023-07-30T13:23:05;3.67;;;1.05;;
49139;SDS011;34959;49.310;8.646;2023-07-30T13:25:30;2.17;;;1.13;;
49139;SDS011;34959;49.310;8.646;2023-07-30T13:27:55;3.53;;;1.20;;
49139;SDS011;34959;49.310;8.646;2023-07-30T13:30:21;2.55;;;1.20;;
49139;SDS011;34959;49.310;8.646;2023-07-30T13:32:46;3.63;;;1.17;;
49139;SDS011;34959;49.310;8.646;2023-07-30T13:35:12;3.17;;;1.05;;
49139;SDS011;34959;49.310;8.646;2023-07-30T13:37:37;3.22;;;1.25;;
49139;SDS011;34959;49.310;8.646;2023-07-30T13:40:02;6.30;;;1.40;;
49139;SDS011;34959;49.310;8.646;2023-07-30T13:42:28;2.75;;;1.05;;
49139;SDS011;34959;49.310;8.646;2023-07-30T13:44:54;4.15;;;1.30;;
49139;SDS011;34959;49.310;8.646;2023-07-30T13:47:19;4.25;;;1.27;;
49139;SDS011;34959;49.310;8.646;2023-07-30T13:49:44;2.50;;;1.10;;
49139;SDS011;34959;49.310;8.646;2023-07-30T13:52:12;4.45;;;1.30;;
49139;SDS011;34959;49.310;8.646;2023-07-30T13:54:38;2.42;;;0.90;;
49139;SDS011;34959;49.310;8.646;2023-07-30T13:57:03;2.80;;;1.20;;
49139;SDS011;34959;49.310;8.646;2023-07-30T13:59:30;13.07;;;2.05;;
49139;SDS011;34959;49.310;8.646;2023-07-30T14:01:55;2.50;;;1.10;;
49139;SDS011;34959;49.310;8.646;2023-07-30T14:04:21;4.15;;;1.23;;
49139;SDS011;34959;49.310;8.646;2023-07-30T14:06:46;2.20;;;1.00;;
49139;SDS011;34959;49.310;8.646;2023-07-30T14:09:11;3.65;;;1.25;;
49139;SDS011;34959;49.310;8.646;2023-07-30T14:11:37;2.20;;;1.10;;
49139;SDS011;34959;49.310;8.646;2023-07-30T14:14:03;2.50;;;1.10;;
49139;SDS011;34959;49.310;8.646;2023-07-30T14:16:28;3.00;;;1.15;;
49139;SDS011;34959;49.310;8.646;2023-07-30T14:18:54;4.07;;;1.35;;
49139;SDS011;34959;49.310;8.646;2023-07-30T14:21:19;2.40;;;0.90;;
49139;SDS011;34959;49.310;8.646;2023-07-30T14:23:44;2.45;;;1.02;;
49139;SDS011;34959;49.310;8.646;2023-07-30T14:26:10;2.42;;;1.30;;
49139;SDS011;34959;49.310;8.646;2023-07-30T14:28:35;1.83;;;1.13;;
49139;SDS011;34959;49.310;8.646;2023-07-30T14:31:01;1.55;;;0.90;;
49139;SDS011;34959;49.310;8.646;2023-07-30T14:33:26;2.42;;;1.17;;
49139;SDS011;34959;49.310;8.646;2023-07-30T14:35:51;3.35;;;1.00;;
49139;SDS011;34959;49.310;8.646;2023-07-30T14:38:17;2.50;;;1.13;;
49139;SDS011;34959;49.310;8.646;2023-07-30T14:40:42;1.83;;;0.80;;
49139;SDS011;34959;49.310;8.646;2023-07-30T14:43:08;3.47;;;1.10;;
49139;SDS011;34959;49.310;8.646;2023-07-30T14:45:34;2.53;;;0.90;;
49139;SDS011;34959;49.310;8.646;2023-07-30T14:47:59;2.00;;;1.23;;
49139;SDS011;34959;49.310;8.646;2023-07-30T14:50:24;2.00;;;1.05;;
49139;SDS011;34959;49.310;8.646;2023-07-30T14:52:50;2.97;;;1.13;;